createdAt,value
2018-11-10T00:01:53.460Z,84.55
2018-11-10T00:04:29.706Z,84.75
2018-11-10T00:07:06.812Z,84.63
2018-11-10T00:09:53.739Z,84.48
2018-11-10T00:12:29.999Z,84.76
2018-11-10T00:15:06.264Z,85.06
2018-11-10T00:17:41.181Z,84.80
2018-11-10T00:20:18.935Z,84.81
2018-11-10T00:23:02.126Z,84.86
2018-11-10T00:25:38.393Z,84.59
2018-11-10T00:28:15.098Z,84.76
2018-11-10T00:30:51.095Z,84.73
2018-11-10T00:33:27.732Z,84.81
2018-11-10T00:36:15.541Z,84.95
2018-11-10T00:38:51.079Z,84.99
2018-11-10T00:41:27.327Z,84.66
2018-11-10T00:44:03.954Z,84.44
2018-11-10T00:46:41.320Z,84.64
2018-11-10T00:49:23.724Z,84.99
2018-11-10T00:52:00.067Z,84.56
2018-11-10T00:54:36.426Z,84.86
2018-11-10T00:57:13.047Z,84.78
2018-11-10T00:59:49.632Z,84.33
2018-11-10T01:02:29.220Z,84.62
2018-11-10T01:05:06.097Z,84.72
2018-11-10T01:07:43.132Z,84.66
2018-11-10T01:10:20.042Z,84.70
2018-11-10T01:12:55.564Z,84.81
2018-11-10T01:15:44.747Z,84.48
2018-11-10T01:18:21.237Z,84.70
2018-11-10T01:20:58.809Z,84.08
2018-11-10T01:23:35.267Z,84.43
2018-11-10T01:26:11.129Z,84.29
2018-11-10T01:28:48.642Z,84.22
2018-11-10T01:34:27.354Z,84.23
2018-11-10T01:37:05.573Z,84.42
2018-11-10T01:39:45.830Z,84.24
2018-11-10T01:42:25.780Z,84.67
2018-11-10T01:45:03.222Z,84.30
2018-11-10T01:47:32.577Z,84.08
2018-11-10T01:50:01.941Z,84.30
2018-11-10T01:52:31.252Z,84.47
2018-11-10T01:55:00.539Z,84.39
2018-11-10T01:57:29.903Z,84.52
2018-11-10T01:59:59.229Z,84.13
2018-11-10T02:02:28.651Z,84.32
2018-11-10T02:04:57.986Z,84.31
2018-11-10T02:07:27.280Z,84.38
2018-11-10T02:09:56.617Z,84.27
2018-11-10T02:12:26.160Z,84.49
2018-11-10T02:14:55.503Z,84.56
2018-11-10T02:17:24.789Z,83.84
2018-11-10T02:19:54.090Z,83.89
2018-11-10T02:22:23.429Z,84.10
2018-11-10T02:24:52.721Z,84.15
2018-11-10T02:27:22.814Z,84.30
2018-11-10T02:29:53.955Z,84.14
2018-11-10T02:32:23.250Z,84.13
2018-11-10T02:34:53.166Z,83.59
2018-11-10T02:37:22.481Z,83.22
2018-11-10T02:39:51.755Z,83.60
2018-11-10T02:42:21.065Z,83.43
2018-11-10T02:44:50.349Z,83.48
2018-11-10T02:47:19.665Z,83.42
2018-11-10T02:49:49.062Z,83.58
2018-11-10T02:52:18.380Z,83.21
2018-11-10T02:54:47.661Z,83.36
2018-11-10T02:57:16.963Z,83.18
2018-11-10T02:59:46.964Z,83.39
2018-11-10T03:02:16.254Z,83.21
2018-11-10T03:04:45.552Z,83.18
2018-11-10T03:07:14.851Z,83.08
2018-11-10T03:09:44.153Z,83.41
2018-11-10T03:12:13.457Z,82.98
2018-11-10T03:14:42.807Z,83.25
2018-11-10T03:17:12.165Z,83.28
2018-11-10T03:19:41.484Z,83.46
2018-11-10T03:22:10.778Z,83.49
2018-11-10T03:24:40.062Z,83.05
2018-11-10T03:27:09.396Z,83.03
2018-11-10T03:29:38.707Z,82.95
2018-11-10T03:32:08.082Z,83.22
2018-11-10T03:34:37.411Z,82.83
2018-11-10T03:37:06.713Z,82.82
2018-11-10T03:39:36.029Z,82.81
2018-11-10T03:42:06.594Z,82.58
2018-11-10T03:44:35.886Z,82.74
2018-11-10T03:47:06.116Z,82.54
2018-11-10T03:49:35.385Z,82.68
2018-11-10T03:52:06.144Z,82.12
2018-11-10T03:54:35.425Z,82.38
2018-11-10T03:57:06.163Z,82.41
2018-11-10T04:02:10.086Z,81.81
2018-11-10T04:04:39.373Z,81.81
2018-11-10T04:07:08.679Z,81.86
2018-11-10T04:09:37.994Z,81.91
2018-11-10T04:12:07.563Z,82.06
2018-11-10T04:14:36.854Z,81.54
2018-11-10T04:17:06.198Z,81.90
2018-11-10T04:19:35.520Z,81.13
2018-11-10T04:22:06.315Z,81.32
2018-11-10T04:24:35.701Z,81.10
2018-11-10T04:32:12.553Z,81.05
2018-11-10T04:34:41.912Z,81.23
2018-11-10T04:37:11.190Z,80.84
2018-11-10T04:39:40.515Z,80.80
2018-11-10T04:42:09.813Z,80.99
2018-11-10T04:44:39.812Z,81.05
2018-11-10T04:47:09.417Z,80.34
2018-11-10T04:49:38.992Z,80.26
2018-11-10T04:52:08.939Z,80.37
2018-11-10T04:54:38.334Z,80.69
2018-11-10T04:57:07.849Z,80.15
2018-11-10T04:59:37.444Z,80.47
2018-11-10T05:02:06.983Z,79.95
2018-11-10T05:04:36.469Z,79.90
2018-11-10T05:07:06.679Z,79.56
2018-11-10T05:09:36.104Z,79.45
2018-11-10T05:12:07.842Z,79.18
2018-11-10T05:14:37.340Z,79.39
2018-11-10T05:17:07.272Z,78.96
2018-11-10T05:19:36.677Z,78.58
2018-11-10T05:22:09.362Z,78.80
2018-11-10T05:24:38.863Z,78.20
2018-11-10T05:27:08.419Z,78.43
2018-11-10T05:29:37.922Z,77.89
2018-11-10T05:32:07.478Z,77.85
2018-11-10T05:34:48.013Z,78.28
2018-11-10T05:37:17.647Z,77.64
2018-11-10T05:39:47.136Z,77.86
2018-11-10T05:42:16.602Z,77.60
2018-11-10T05:44:46.005Z,77.66
2018-11-10T05:47:15.466Z,77.25
2018-11-10T05:49:45.115Z,77.67
2018-11-10T05:52:14.526Z,76.97
2018-11-10T05:54:43.979Z,77.04
2018-11-10T05:57:13.484Z,76.86
2018-11-10T05:59:42.903Z,76.98
2018-11-10T06:02:12.384Z,76.38
2018-11-10T06:04:41.839Z,76.80
2018-11-10T06:07:11.506Z,77.04
2018-11-10T06:09:41.723Z,76.63
2018-11-10T06:12:11.133Z,76.62
2018-11-10T06:14:40.724Z,76.12
2018-11-10T06:17:10.232Z,76.42
2018-11-10T06:19:39.844Z,76.80
2018-11-10T06:22:09.408Z,76.42
2018-11-10T06:24:39.002Z,76.22
2018-11-10T06:27:14.007Z,77.08
2018-11-10T06:29:43.606Z,76.83
2018-11-10T06:32:13.118Z,76.68
2018-11-10T06:34:42.723Z,77.04
2018-11-10T06:37:12.228Z,77.14
2018-11-10T06:39:42.048Z,77.32
2018-11-10T06:42:11.652Z,77.26
2018-11-10T06:44:44.333Z,77.77
2018-11-10T06:47:14.051Z,77.53
2018-11-10T06:49:43.582Z,77.27
2018-11-10T06:52:13.143Z,77.53
2018-11-10T06:54:42.650Z,78.09
2018-11-10T06:57:12.205Z,78.03
2018-11-10T06:59:41.738Z,78.30
2018-11-10T07:02:12.278Z,78.22
2018-11-10T07:04:41.802Z,78.20
2018-11-10T07:07:11.301Z,77.80
2018-11-10T07:09:40.847Z,78.47
2018-11-10T07:12:10.407Z,78.19
2018-11-10T07:14:39.932Z,78.52
2018-11-10T07:17:09.326Z,78.32
2018-11-10T07:19:38.714Z,78.30
2018-11-10T07:22:08.142Z,78.47
2018-11-10T07:24:37.464Z,78.14
2018-11-10T07:27:06.993Z,78.24
2018-11-10T07:29:36.362Z,78.67
2018-11-10T07:32:08.625Z,78.63
2018-11-10T07:34:38.026Z,77.36
2018-11-10T07:37:07.431Z,77.28
2018-11-10T07:39:36.814Z,77.38
2018-11-10T07:42:06.330Z,78.02
2018-11-10T07:44:35.695Z,77.43
2018-11-10T07:47:07.577Z,77.38
2018-11-10T07:49:37.008Z,77.03
2018-11-10T07:52:06.732Z,77.09
2018-11-10T07:54:36.210Z,78.02
2018-11-10T07:57:06.072Z,76.93
2018-11-10T07:59:35.416Z,76.80
2018-11-10T08:02:06.248Z,76.74
2018-11-10T08:04:35.890Z,76.47
2018-11-10T08:07:06.374Z,76.16
2018-11-10T08:09:35.841Z,75.89
2018-11-10T08:12:06.603Z,76.49
2018-11-10T08:14:36.023Z,76.20
2018-11-10T08:17:07.072Z,75.78
2018-11-10T08:19:36.417Z,76.39
2018-11-10T08:22:06.251Z,76.06
2018-11-10T08:24:35.676Z,75.74
2018-11-10T08:27:06.229Z,75.92
2018-11-10T08:29:35.609Z,76.11
2018-11-10T08:32:06.253Z,75.31
2018-11-10T08:34:35.649Z,75.09
2018-11-10T08:37:06.483Z,75.43
2018-11-10T08:39:35.893Z,75.54
2018-11-10T08:42:06.700Z,75.96
2018-11-10T08:44:36.118Z,75.53
2018-11-10T08:47:06.883Z,76.09
2018-11-10T08:49:36.298Z,76.39
2018-11-10T08:52:06.277Z,76.76
2018-11-10T08:54:35.611Z,77.01
2018-11-10T08:57:06.257Z,76.38
2018-11-10T08:59:35.612Z,76.05
2018-11-10T09:02:05.138Z,76.18
2018-11-10T09:04:34.490Z,76.22
2018-11-10T09:07:03.841Z,76.35
2018-11-10T09:09:33.266Z,76.95
2018-11-10T09:12:02.769Z,76.95
2018-11-10T09:14:32.300Z,76.36
2018-11-10T09:17:01.763Z,76.98
2018-11-10T09:19:33.275Z,76.60
2018-11-10T09:22:02.743Z,76.53
2018-11-10T09:24:32.270Z,77.06
2018-11-10T09:27:01.639Z,76.58
2018-11-10T09:29:31.032Z,76.44
2018-11-10T09:32:00.426Z,76.35
2018-11-10T09:34:29.814Z,76.96
2018-11-10T09:37:01.041Z,76.42
2018-11-10T09:39:30.438Z,77.06
2018-11-10T09:41:59.758Z,76.68
2018-11-10T09:44:29.153Z,76.40
2018-11-10T09:46:58.482Z,76.91
2018-11-10T09:49:27.955Z,76.97
2018-11-10T09:51:57.342Z,76.94
2018-11-10T09:54:26.762Z,76.26
2018-11-10T09:56:56.127Z,77.42
2018-11-10T09:59:25.464Z,76.56
2018-11-10T10:01:59.843Z,76.94
2018-11-10T10:04:30.631Z,76.49
2018-11-10T10:07:00.211Z,76.85
2018-11-10T10:09:29.535Z,76.84
2018-11-10T10:11:59.522Z,76.72
2018-11-10T10:14:28.842Z,75.82
2018-11-10T10:16:58.174Z,76.44
2018-11-10T10:19:27.534Z,76.83
2018-11-10T10:21:57.071Z,76.26
2018-11-10T10:24:26.418Z,77.06
2018-11-10T10:26:55.814Z,76.98
2018-11-10T10:29:25.195Z,77.01
2018-11-10T10:31:54.627Z,77.22
2018-11-10T10:34:24.157Z,77.53
2018-11-10T10:36:53.422Z,76.62
2018-11-10T10:39:22.812Z,77.16
2018-11-10T10:41:52.167Z,77.35
2018-11-10T10:44:21.521Z,76.96
2018-11-10T10:46:50.924Z,77.08
2018-11-10T10:49:20.484Z,76.59
2018-11-10T10:51:49.962Z,77.24
2018-11-10T10:54:19.330Z,76.72
2018-11-10T10:56:48.769Z,77.16
2018-11-10T10:59:19.436Z,76.95
2018-11-10T11:01:54.139Z,77.08
2018-11-10T11:04:28.756Z,77.31
2018-11-10T11:06:58.115Z,77.22
2018-11-10T11:09:27.483Z,76.87
2018-11-10T11:11:56.864Z,76.16
2018-11-10T11:14:26.322Z,76.72
2018-11-10T11:16:55.714Z,76.22
2018-11-10T11:19:25.104Z,76.04
2018-11-10T11:21:54.467Z,75.31
2018-11-10T11:24:30.496Z,75.23
2018-11-10T11:26:59.854Z,75.81
2018-11-10T11:29:29.439Z,75.12
2018-11-10T11:31:58.663Z,74.86
2018-11-10T11:34:28.008Z,74.59
2018-11-10T11:36:57.543Z,74.30
2018-11-10T11:39:26.889Z,74.37
2018-11-10T11:41:56.226Z,73.88
2018-11-10T11:44:25.595Z,74.20
2018-11-10T11:46:54.975Z,74.10
2018-11-10T11:49:24.333Z,73.63
2018-11-10T11:51:53.688Z,73.16
2018-11-10T11:54:23.085Z,73.04
2018-11-10T11:56:52.468Z,73.62
2018-11-10T11:59:22.195Z,73.09
2018-11-10T12:01:51.602Z,73.41
2018-11-10T12:04:21.066Z,72.87
2018-11-10T12:06:52.760Z,72.55
2018-11-10T12:09:23.924Z,73.11
2018-11-10T12:11:55.047Z,72.41
2018-11-10T12:14:26.094Z,72.35
2018-11-10T12:16:55.495Z,72.94
2018-11-10T12:19:24.806Z,72.58
2018-11-10T12:21:54.227Z,72.14
2018-11-10T12:24:23.666Z,72.34
2018-11-10T12:26:53.043Z,72.23
2018-11-10T12:29:28.719Z,72.59
2018-11-10T12:31:58.923Z,72.87
2018-11-10T12:34:28.281Z,72.17
2018-11-10T12:36:59.388Z,72.07
2018-11-10T12:39:28.778Z,72.59
2018-11-10T12:41:58.166Z,72.67
2018-11-10T12:44:31.189Z,71.87
2018-11-10T12:47:00.578Z,71.87
2018-11-10T12:49:29.980Z,71.88
2018-11-10T12:51:59.387Z,71.92
2018-11-10T12:54:28.738Z,71.58
2018-11-10T12:56:58.095Z,71.68
2018-11-10T12:59:27.487Z,71.80
2018-11-10T13:01:56.863Z,72.32
2018-11-10T13:04:26.504Z,72.20
2018-11-10T13:06:55.965Z,72.12
2018-11-10T13:09:25.328Z,71.88
2018-11-10T13:11:54.883Z,72.08
2018-11-10T13:14:24.313Z,72.16
2018-11-10T13:16:53.905Z,71.99
2018-11-10T13:19:29.075Z,72.05
2018-11-10T13:21:58.466Z,72.09
2018-11-10T13:24:27.833Z,71.81
2018-11-10T13:26:57.271Z,72.33
2018-11-10T13:29:27.180Z,72.38
2018-11-10T13:31:56.591Z,72.00
2018-11-10T13:34:26.130Z,72.45
2018-11-10T13:36:55.484Z,72.30
2018-11-10T13:39:24.872Z,72.18
2018-11-10T13:41:56.728Z,72.18
2018-11-10T13:44:29.096Z,71.96
2018-11-10T13:47:02.064Z,72.34
2018-11-10T13:49:34.615Z,72.36
2018-11-10T13:52:07.640Z,72.37
2018-11-10T13:54:39.169Z,72.60
2018-11-10T13:57:08.535Z,72.53
2018-11-10T13:59:38.097Z,72.82
2018-11-10T14:02:08.225Z,72.66
2018-11-10T14:04:37.624Z,72.99
2018-11-10T14:07:07.020Z,73.17
2018-11-10T14:09:39.426Z,72.84
2018-11-10T14:12:08.808Z,73.61
2018-11-10T14:14:40.330Z,73.14
2018-11-10T14:17:11.821Z,72.81
2018-11-10T14:19:43.367Z,73.44
2018-11-10T14:22:12.827Z,72.96
2018-11-10T14:24:42.211Z,73.64
2018-11-10T14:27:11.583Z,73.20
2018-11-10T14:29:40.961Z,73.40
2018-11-10T14:32:10.364Z,73.77
2018-11-10T14:34:39.730Z,73.78
2018-11-10T14:37:09.095Z,74.08
2018-11-10T14:39:38.435Z,73.60
2018-11-10T14:42:07.770Z,73.48
2018-11-10T14:44:37.151Z,74.05
2018-11-10T14:47:06.729Z,73.86
2018-11-10T14:49:41.060Z,73.64
2018-11-10T14:52:10.511Z,74.05
2018-11-10T14:54:39.850Z,74.45
2018-11-10T14:57:09.232Z,74.79
2018-11-10T14:59:38.631Z,74.41
2018-11-10T15:02:08.008Z,74.66
2018-11-10T15:04:37.482Z,74.45
2018-11-10T15:07:06.987Z,74.34
2018-11-10T15:09:36.350Z,74.09
2018-11-10T15:12:06.688Z,74.55
2018-11-10T15:14:36.001Z,75.03
2018-11-10T15:17:06.666Z,75.39
2018-11-10T15:19:36.032Z,75.50
2018-11-10T15:22:06.984Z,75.10
2018-11-10T15:24:36.386Z,75.43
2018-11-10T15:27:06.318Z,75.43
2018-11-10T15:29:35.806Z,75.06
2018-11-10T15:32:07.058Z,75.44
2018-11-10T15:34:36.435Z,75.42
2018-11-10T15:37:06.116Z,75.57
2018-11-10T15:39:36.071Z,75.92
2018-11-10T15:42:07.714Z,75.93
2018-11-10T15:44:37.349Z,76.48
2018-11-10T15:47:07.010Z,76.22
2018-11-10T15:49:36.596Z,76.89
2018-11-10T15:52:06.688Z,76.60
2018-11-10T15:54:36.112Z,76.82
2018-11-10T15:57:06.339Z,77.11
2018-11-10T15:59:35.623Z,77.14
2018-11-10T16:02:06.253Z,77.57
2018-11-10T16:04:35.593Z,77.42
2018-11-10T16:07:06.223Z,77.58
2018-11-10T16:09:35.607Z,77.57
2018-11-10T16:12:04.948Z,77.65
2018-11-10T16:14:34.275Z,78.32
2018-11-10T16:17:03.626Z,77.73
2018-11-10T16:19:32.955Z,77.67
2018-11-10T16:22:02.326Z,77.99
2018-11-10T16:24:31.678Z,78.43
2018-11-10T16:27:01.083Z,78.51
2018-11-10T16:29:30.504Z,78.59
2018-11-10T16:31:59.839Z,79.00
2018-11-10T16:34:29.210Z,78.44
2018-11-10T16:36:58.599Z,78.35
2018-11-10T16:39:27.972Z,78.41
2018-11-10T16:41:57.598Z,78.57
2018-11-10T16:44:27.252Z,78.77
2018-11-10T16:46:57.614Z,78.56
2018-11-10T16:49:27.280Z,79.22
2018-11-10T16:51:56.894Z,79.05
2018-11-10T16:54:32.590Z,79.69
2018-11-10T16:57:02.367Z,79.70
2018-11-10T16:59:32.090Z,79.49
2018-11-10T17:02:01.890Z,79.10
2018-11-10T17:04:31.597Z,79.94
2018-11-10T17:07:01.285Z,79.49
2018-11-10T17:09:30.815Z,79.43
2018-11-10T17:12:02.560Z,79.20
2018-11-10T17:14:32.283Z,79.55
2018-11-10T17:17:01.876Z,79.68
2018-11-10T17:19:31.593Z,80.02
2018-11-10T17:22:01.983Z,79.59
2018-11-10T17:26:58.252Z,80.00
2018-11-10T17:29:30.631Z,80.32
2018-11-10T17:32:00.220Z,80.31
2018-11-10T17:34:29.762Z,80.00
2018-11-10T17:36:59.279Z,80.72
2018-11-10T17:39:28.927Z,80.57
2018-11-10T17:41:58.263Z,81.24
2018-11-10T17:44:27.554Z,80.49
2018-11-10T17:46:56.873Z,81.26
2018-11-10T17:49:26.207Z,81.52
2018-11-10T17:51:56.634Z,81.43
2018-11-10T17:54:26.250Z,81.70
2018-11-10T17:56:55.575Z,81.45
2018-11-10T17:59:25.120Z,81.42
2018-11-10T18:01:54.669Z,81.67
2018-11-10T18:04:23.924Z,81.49
2018-11-10T18:06:54.823Z,81.81
2018-11-10T18:09:24.170Z,81.52
2018-11-10T18:11:53.656Z,82.16
2018-11-10T18:14:23.243Z,81.91
2018-11-10T18:16:52.777Z,81.33
2018-11-10T18:19:22.311Z,81.67
2018-11-10T18:22:02.841Z,81.33
2018-11-10T18:24:32.343Z,81.93
2018-11-10T18:27:01.940Z,81.73
2018-11-10T18:29:31.457Z,81.95
2018-11-10T18:32:01.187Z,81.89
2018-11-10T18:34:30.829Z,81.76
2018-11-10T18:37:00.382Z,81.37
2018-11-10T18:39:30.173Z,81.28
2018-11-10T18:41:59.694Z,81.71
2018-11-10T18:44:29.279Z,81.68
2018-11-10T18:46:58.846Z,81.35
2018-11-10T18:49:28.499Z,81.52
2018-11-10T18:51:58.102Z,81.48
2018-11-10T18:54:27.629Z,81.48
2018-11-10T18:56:57.296Z,81.44
2018-11-10T18:59:26.849Z,81.32
2018-11-10T19:02:06.457Z,81.55
2018-11-10T19:04:35.933Z,81.10
2018-11-10T19:07:06.435Z,81.32
2018-11-10T19:09:36.032Z,81.53
2018-11-10T19:12:06.743Z,81.80
2018-11-10T19:15:39.327Z,81.24
2018-11-10T19:18:09.131Z,81.81
2018-11-10T19:23:38.479Z,81.21
2018-11-10T19:26:08.007Z,81.88
2018-11-10T19:28:37.591Z,81.17
2018-11-10T19:31:07.221Z,81.76
2018-11-10T19:33:36.817Z,82.08
2018-11-10T19:36:06.730Z,81.69
2018-11-10T19:38:36.340Z,81.43
2018-11-10T19:41:06.693Z,81.71
2018-11-10T19:43:36.268Z,81.73
2018-11-10T19:46:06.516Z,81.70
2018-11-10T19:48:36.177Z,81.87
2018-11-10T19:51:12.335Z,81.04
2018-11-10T19:53:42.787Z,81.50
2018-11-10T19:56:12.692Z,81.71
2018-11-10T19:58:42.386Z,81.21
2018-11-10T20:01:12.032Z,80.97
2018-11-10T20:03:41.689Z,81.42
2018-11-10T20:08:50.321Z,81.82
2018-11-10T20:11:19.956Z,82.19
2018-11-10T20:13:49.724Z,81.88
2018-11-10T20:16:29.810Z,81.80
2018-11-10T20:18:59.434Z,82.00
2018-11-10T20:21:29.144Z,81.80
2018-11-10T20:24:02.338Z,81.61
2018-11-10T20:26:32.016Z,81.59
2018-11-10T20:29:01.644Z,81.94
2018-11-10T20:31:31.247Z,81.49
2018-11-10T20:34:00.968Z,81.84
2018-11-10T20:36:30.686Z,82.01
2018-11-10T20:39:00.368Z,82.22
2018-11-10T20:41:29.984Z,81.68
2018-11-10T20:44:00.101Z,81.89
2018-11-10T20:49:06.537Z,81.18
2018-11-10T20:51:36.138Z,81.99
2018-11-10T20:54:07.587Z,81.55
2018-11-10T20:56:37.359Z,81.25
2018-11-10T20:59:07.080Z,81.53
2018-11-10T21:01:36.783Z,81.27
2018-11-10T21:04:06.996Z,81.62
2018-11-10T21:06:37.021Z,81.37
2018-11-10T21:09:12.954Z,81.71
2018-11-10T21:11:42.686Z,81.87
2018-11-10T21:14:12.706Z,81.29
2018-11-10T21:16:42.395Z,81.60
2018-11-10T21:19:12.195Z,82.23
2018-11-10T21:21:41.929Z,81.22
2018-11-10T21:24:11.632Z,81.16
2018-11-10T21:26:41.323Z,81.53
2018-11-10T21:29:11.230Z,81.43
2018-11-10T21:31:40.761Z,81.85
2018-11-10T21:34:10.479Z,81.83
2018-11-10T21:36:40.099Z,81.85
2018-11-10T21:39:11.099Z,82.00
2018-11-10T21:41:40.777Z,81.97
2018-11-10T21:44:13.796Z,81.97
2018-11-10T21:46:43.308Z,81.87
2018-11-10T21:49:12.905Z,81.93
2018-11-10T21:51:42.430Z,82.32
2018-11-10T21:54:11.943Z,82.50
2018-11-10T21:56:41.486Z,82.57
2018-11-10T21:59:11.053Z,82.06
2018-11-10T22:01:40.548Z,82.09
2018-11-10T22:04:10.109Z,82.07
2018-11-10T22:06:39.485Z,82.07
2018-11-10T22:09:11.930Z,81.87
2018-11-10T22:11:42.659Z,81.84
2018-11-10T22:14:12.176Z,81.48
2018-11-10T22:16:41.514Z,81.75
2018-11-10T22:19:10.851Z,82.37
2018-11-10T22:21:40.206Z,81.94
2018-11-10T22:24:09.541Z,82.35
2018-11-10T22:26:38.914Z,82.00
2018-11-10T22:29:08.304Z,81.91
2018-11-10T22:31:37.641Z,81.97
2018-11-10T22:34:07.114Z,82.16
2018-11-10T22:36:36.550Z,81.92
2018-11-10T22:39:08.913Z,82.43
2018-11-10T22:41:38.246Z,82.71
2018-11-10T22:44:07.727Z,82.09
2018-11-10T22:46:37.073Z,82.08
2018-11-10T22:49:06.543Z,82.55
2018-11-10T22:51:35.868Z,82.27
2018-11-10T22:54:06.310Z,82.40
2018-11-10T22:56:35.652Z,82.46
2018-11-10T22:59:06.312Z,82.58
2018-11-10T23:01:35.663Z,82.44
2018-11-10T23:04:05.003Z,82.25
2018-11-10T23:06:34.367Z,82.14
2018-11-10T23:09:04.573Z,81.92
2018-11-10T23:11:33.986Z,82.36
2018-11-10T23:14:03.357Z,82.52
2018-11-10T23:16:32.685Z,82.59
2018-11-10T23:19:01.996Z,82.31
2018-11-10T23:21:31.319Z,82.25
2018-11-10T23:24:00.640Z,82.08
2018-11-10T23:26:29.972Z,82.65
2018-11-10T23:29:01.325Z,82.23
2018-11-10T23:31:30.731Z,82.35
2018-11-10T23:34:00.167Z,82.30
2018-11-10T23:36:29.529Z,82.57
2018-11-10T23:38:58.873Z,82.80
2018-11-10T23:41:28.193Z,82.68
2018-11-10T23:43:57.533Z,82.81
2018-11-10T23:46:26.899Z,82.50
2018-11-10T23:48:56.238Z,82.25
2018-11-10T23:51:25.556Z,82.70
2018-11-10T23:53:54.932Z,82.53
2018-11-10T23:56:24.255Z,82.06
2018-11-10T23:58:53.617Z,82.71
